Terminal Aerodrome Forecast
Issued by NWS Corpus Christi, TX

Home | Current Version | Previous Version | Text Only | Print | Product List | Glossary On
Versions: 1 2 3 4 5 6 7 8 9 10 11 12 13 14 15
000
FTUS44 KCRP 261138
TAFVCT
TAF
KVCT 261138Z 2612/2712 05004KT 6SM BR VCSH BKN004 OVC120
      TEMPO 2612/2614 4SM BR OVC003
     FM261500 02007KT P6SM VCSH SCT015 OVC080
     FM261900 01008KT P6SM VCTS BKN025CB OVC100
      TEMPO 2619/2623 5SM TSRA BR OVC010CB
     FM270000 35004KT P6SM OVC030
     FM270800 26007KT P6SM OVC021=

USA.gov is the U.S. government's official web portal to all federal, state and local government web resources and services.